createdAt,value
2023-12-18T00:01:58.881Z,8.52
2023-12-18T00:04:28.042Z,8.25
2023-12-18T00:06:55.445Z,5.95
2023-12-18T00:09:22.826Z,7.68
2023-12-18T00:11:50.406Z,7.80
2023-12-18T00:14:17.818Z,8.23
2023-12-18T00:16:45.359Z,8.13
2023-12-18T00:19:12.956Z,10.10
2023-12-18T00:21:41.816Z,7.45
2023-12-18T00:24:09.308Z,9.40
2023-12-18T00:26:36.684Z,10.60
2023-12-18T00:29:04.137Z,9.20
2023-12-18T00:31:31.776Z,11.38
2023-12-18T00:33:59.483Z,7.05
2023-12-18T00:36:26.945Z,9.80
2023-12-18T00:38:55.694Z,10.23
2023-12-18T00:41:23.095Z,10.73
2023-12-18T00:43:51.862Z,9.23
2023-12-18T00:46:19.502Z,8.30
2023-12-18T00:48:47.012Z,10.07
2023-12-18T00:51:14.405Z,10.73
2023-12-18T00:53:41.851Z,10.50
2023-12-18T00:56:10.611Z,9.57
2023-12-18T00:58:38.030Z,9.05
2023-12-18T01:01:05.588Z,10.45
2023-12-18T01:03:33.185Z,10.43
2023-12-18T01:06:00.645Z,9.55
2023-12-18T01:08:28.176Z,9.00
2023-12-18T01:10:55.597Z,9.23
2023-12-18T01:13:24.440Z,12.55
2023-12-18T01:15:51.829Z,10.90
2023-12-18T01:18:19.418Z,10.38
2023-12-18T01:20:46.840Z,10.73
2023-12-18T01:23:14.916Z,13.13
2023-12-18T01:25:42.301Z,12.82
2023-12-18T01:28:09.734Z,12.82
2023-12-18T01:30:38.432Z,13.48
2023-12-18T01:33:06.276Z,11.02
2023-12-18T01:35:33.733Z,14.60
2023-12-18T01:38:01.071Z,17.85
2023-12-18T01:40:28.954Z,11.02
2023-12-18T01:42:56.292Z,15.32
2023-12-18T01:45:23.705Z,12.25
2023-12-18T01:47:52.551Z,12.63
2023-12-18T01:50:20.048Z,12.98
2023-12-18T01:52:47.527Z,12.45
2023-12-18T01:55:16.053Z,13.07
2023-12-18T01:57:43.842Z,15.50
2023-12-18T02:00:12.870Z,13.43
2023-12-18T02:02:40.495Z,15.13
2023-12-18T02:05:09.389Z,14.57
2023-12-18T02:07:37.266Z,14.50
2023-12-18T02:10:05.398Z,14.02
2023-12-18T02:12:32.893Z,14.00
2023-12-18T02:15:00.633Z,14.48
2023-12-18T02:17:28.025Z,13.63
2023-12-18T02:20:05.728Z,19.20
2023-12-18T02:22:36.321Z,17.38
2023-12-18T02:25:03.824Z,13.23
2023-12-18T02:27:31.830Z,18.08
2023-12-18T02:29:59.211Z,16.67
2023-12-18T02:32:26.628Z,17.98
2023-12-18T02:34:54.157Z,16.45
2023-12-18T02:37:23.773Z,17.00
2023-12-18T02:39:52.493Z,16.55
2023-12-18T02:42:19.941Z,19.38
2023-12-18T02:44:47.465Z,17.73
2023-12-18T02:47:14.838Z,20.27
2023-12-18T02:49:42.282Z,19.08
2023-12-18T02:52:09.654Z,18.48
2023-12-18T02:54:37.113Z,17.88
2023-12-18T02:57:15.458Z,16.60
2023-12-18T02:59:42.842Z,18.27
2023-12-18T03:02:10.179Z,17.33
2023-12-18T03:04:40.362Z,18.83
2023-12-18T03:07:08.011Z,16.05
2023-12-18T03:09:35.582Z,15.32
2023-12-18T03:12:03.124Z,17.20
2023-12-18T03:14:31.905Z,15.65
2023-12-18T03:16:59.342Z,15.90
2023-12-18T03:19:26.909Z,17.80
2023-12-18T03:21:54.368Z,18.23
2023-12-18T03:24:23.810Z,14.50
2023-12-18T03:26:51.530Z,15.15
2023-12-18T03:29:18.929Z,17.83
2023-12-18T03:31:47.635Z,18.60
2023-12-18T03:34:15.081Z,14.65
2023-12-18T03:36:42.662Z,18.25
2023-12-18T03:39:10.185Z,13.90
2023-12-18T03:41:37.560Z,16.50
2023-12-18T03:44:05.017Z,16.63
2023-12-18T03:46:32.380Z,19.02
2023-12-18T03:49:01.147Z,19.40
2023-12-18T03:51:28.695Z,18.00
2023-12-18T03:53:56.140Z,17.75
2023-12-18T03:56:23.584Z,22.50
2023-12-18T03:58:50.937Z,20.95
2023-12-18T04:01:18.471Z,25.20
2023-12-18T04:03:45.941Z,21.00
2023-12-18T04:06:14.786Z,20.00
2023-12-18T04:08:42.155Z,19.42
2023-12-18T04:11:15.503Z,19.02
2023-12-18T04:13:43.323Z,26.15
2023-12-18T04:16:10.903Z,23.60
2023-12-18T04:18:38.617Z,18.73
2023-12-18T04:21:06.234Z,20.55
2023-12-18T04:23:35.530Z,19.63
2023-12-18T04:26:02.911Z,21.08
2023-12-18T04:28:30.280Z,16.88
2023-12-18T04:30:57.771Z,22.40
2023-12-18T04:33:25.375Z,19.55
2023-12-18T04:35:52.843Z,17.30
2023-12-18T04:38:20.292Z,18.58
2023-12-18T04:40:49.043Z,20.83
2023-12-18T04:43:16.447Z,20.48
2023-12-18T04:45:43.963Z,21.17
2023-12-18T04:48:11.586Z,21.55
2023-12-18T04:50:39.084Z,23.67
2023-12-18T04:53:06.420Z,28.85
2023-12-18T04:55:33.834Z,25.10
2023-12-18T04:58:02.566Z,21.52
2023-12-18T05:00:29.920Z,22.65
2023-12-18T05:02:57.440Z,24.83
2023-12-18T05:05:26.633Z,20.90
2023-12-18T05:07:54.096Z,19.50
2023-12-18T05:10:21.569Z,24.85
2023-12-18T05:12:49.012Z,22.80
2023-12-18T05:15:17.784Z,23.98
2023-12-18T05:17:45.274Z,23.95
2023-12-18T05:20:13.773Z,18.92
2023-12-18T05:22:41.431Z,22.92
2023-12-18T05:25:10.356Z,23.10
2023-12-18T05:27:37.838Z,31.10
2023-12-18T05:30:06.055Z,21.63
2023-12-18T05:32:34.989Z,21.55
2023-12-18T05:35:02.461Z,19.85
2023-12-18T05:37:30.536Z,22.63
2023-12-18T05:39:57.105Z,26.70
2023-12-18T05:42:24.567Z,19.08
2023-12-18T05:44:51.964Z,21.35
2023-12-18T05:47:19.413Z,21.33
2023-12-18T05:49:50.639Z,24.52
2023-12-18T05:52:20.053Z,22.20
2023-12-18T05:54:47.541Z,29.60
2023-12-18T05:57:18.213Z,23.60
2023-12-18T05:59:45.993Z,14.95
2023-12-18T06:02:13.489Z,25.42
2023-12-18T06:04:43.117Z,20.85
2023-12-18T06:07:12.305Z,21.25
2023-12-18T06:09:41.178Z,24.38
2023-12-18T06:12:09.003Z,23.05
2023-12-18T06:14:37.195Z,20.05
2023-12-18T06:17:05.728Z,20.77
2023-12-18T06:19:33.272Z,24.83
2023-12-18T06:22:09.715Z,20.05
2023-12-18T06:24:40.213Z,22.70
2023-12-18T06:27:08.112Z,20.75
2023-12-18T06:29:35.556Z,21.50
2023-12-18T06:32:03.009Z,14.50
2023-12-18T06:34:30.581Z,20.17
2023-12-18T06:36:58.052Z,18.83
2023-12-18T06:39:25.475Z,18.00
2023-12-18T06:41:54.179Z,20.80
2023-12-18T06:44:21.591Z,20.52
2023-12-18T06:46:48.972Z,21.98
2023-12-18T06:49:16.434Z,21.42
2023-12-18T06:51:45.489Z,25.08
2023-12-18T06:54:13.175Z,20.63
2023-12-18T06:56:40.554Z,16.83
2023-12-18T06:59:09.230Z,19.92
2023-12-18T07:01:36.726Z,19.20
2023-12-18T07:04:04.951Z,17.20
2023-12-18T07:06:33.422Z,20.20
2023-12-18T07:09:00.876Z,22.55
2023-12-18T07:11:28.369Z,16.98
2023-12-18T07:13:55.757Z,18.02
2023-12-18T07:16:24.639Z,19.88
2023-12-18T07:18:52.099Z,19.65
2023-12-18T07:21:19.647Z,19.25
2023-12-18T07:23:47.165Z,20.08
2023-12-18T07:26:14.836Z,16.63
2023-12-18T07:28:42.388Z,22.30
2023-12-18T07:31:10.054Z,20.52
2023-12-18T07:33:38.924Z,22.23
2023-12-18T07:36:06.556Z,23.65
2023-12-18T07:38:33.951Z,22.60
2023-12-18T07:41:03.807Z,19.17
2023-12-18T07:43:31.200Z,16.63
2023-12-18T07:45:58.640Z,20.70
2023-12-18T07:48:27.107Z,23.70
2023-12-18T07:50:56.987Z,20.98
2023-12-18T07:53:24.502Z,25.45
2023-12-18T07:55:54.263Z,31.00
2023-12-18T07:58:21.814Z,21.73
2023-12-18T08:00:49.324Z,18.88
2023-12-18T08:03:16.940Z,19.42
2023-12-18T08:05:44.422Z,18.60
2023-12-18T08:08:13.187Z,19.85
2023-12-18T08:10:40.580Z,19.23
2023-12-18T08:13:07.970Z,16.73
2023-12-18T08:15:35.378Z,18.15
2023-12-18T08:18:03.037Z,18.33
2023-12-18T08:20:30.456Z,15.95
2023-12-18T08:22:57.899Z,18.98
2023-12-18T08:25:26.846Z,21.52
2023-12-18T08:27:54.411Z,16.08
2023-12-18T08:30:21.909Z,17.77
2023-12-18T08:32:49.369Z,19.25
2023-12-18T08:35:16.737Z,23.55
2023-12-18T08:37:44.136Z,18.30
2023-12-18T08:40:12.396Z,15.27
2023-12-18T08:42:41.388Z,14.20
2023-12-18T08:45:09.512Z,14.07
2023-12-18T08:47:37.004Z,13.10
2023-12-18T08:50:04.748Z,15.60
2023-12-18T08:52:32.183Z,11.93
2023-12-18T08:54:59.552Z,16.27
2023-12-18T08:57:26.937Z,12.07
2023-12-18T08:59:56.470Z,14.55
2023-12-18T09:02:23.842Z,14.27
2023-12-18T09:04:51.297Z,16.10
2023-12-18T09:07:18.703Z,16.02
2023-12-18T09:09:46.259Z,16.83
2023-12-18T09:12:13.923Z,13.88
2023-12-18T09:14:41.313Z,15.30
2023-12-18T09:17:10.083Z,14.27
2023-12-18T09:19:37.781Z,17.90
2023-12-18T09:22:06.224Z,12.75
2023-12-18T09:24:33.824Z,13.85
2023-12-18T09:27:02.221Z,12.90
2023-12-18T09:29:29.632Z,14.35
2023-12-18T09:31:57.112Z,15.65
2023-12-18T09:34:26.039Z,13.70
2023-12-18T09:36:53.443Z,16.83
2023-12-18T09:39:20.877Z,16.23
2023-12-18T09:41:48.334Z,15.02
2023-12-18T09:44:15.828Z,13.95
2023-12-18T09:46:43.291Z,15.20
2023-12-18T09:49:11.032Z,13.40
2023-12-18T09:51:41.179Z,15.63
2023-12-18T09:54:08.904Z,19.30
2023-12-18T09:56:37.025Z,19.88
2023-12-18T09:59:05.192Z,14.13
2023-12-18T10:01:32.891Z,16.08
2023-12-18T10:04:00.510Z,16.75
2023-12-18T10:06:28.180Z,13.68
2023-12-18T10:08:56.946Z,16.63
2023-12-18T10:11:24.544Z,16.08
2023-12-18T10:13:52.379Z,16.85
2023-12-18T10:16:19.826Z,15.00
2023-12-18T10:18:47.435Z,16.38
2023-12-18T10:21:14.902Z,14.25
2023-12-18T10:23:42.311Z,14.75
2023-12-18T10:26:11.567Z,17.30
2023-12-18T10:28:38.968Z,14.85
2023-12-18T10:31:09.863Z,16.17
2023-12-18T10:33:38.655Z,13.00
2023-12-18T10:36:08.226Z,14.65
2023-12-18T10:38:37.734Z,11.73
2023-12-18T10:41:05.532Z,15.15
2023-12-18T10:43:34.598Z,17.42
2023-12-18T10:46:03.702Z,16.00
2023-12-18T10:48:31.386Z,18.45
2023-12-18T10:50:59.425Z,17.00
2023-12-18T10:53:27.336Z,18.98
2023-12-18T10:55:55.201Z,15.65
2023-12-18T10:58:23.019Z,17.77
2023-12-18T11:00:54.060Z,15.50
2023-12-18T11:03:27.872Z,12.45
2023-12-18T11:05:55.881Z,17.27
2023-12-18T11:08:23.271Z,21.33
2023-12-18T11:10:51.251Z,16.30
2023-12-18T11:13:24.596Z,15.70
2023-12-18T11:15:57.718Z,23.77
2023-12-18T11:18:28.180Z,16.08
2023-12-18T11:20:56.898Z,18.08
2023-12-18T11:23:26.523Z,18.60
2023-12-18T11:25:55.427Z,17.55
2023-12-18T11:28:26.356Z,22.33
2023-12-18T11:31:01.545Z,15.50
2023-12-18T11:33:38.545Z,18.63
2023-12-18T11:36:11.872Z,21.67
2023-12-18T11:38:39.718Z,16.15
2023-12-18T11:41:07.114Z,17.83
2023-12-18T11:43:38.153Z,16.58
2023-12-18T11:46:16.877Z,12.05
2023-12-18T11:48:46.830Z,18.60
2023-12-18T11:51:15.317Z,19.80
2023-12-18T11:53:42.750Z,19.92
2023-12-18T11:56:10.719Z,21.15
2023-12-18T11:58:38.745Z,21.58
2023-12-18T12:01:07.900Z,18.17
2023-12-18T12:03:35.652Z,19.60
2023-12-18T12:06:04.423Z,20.65
2023-12-18T12:08:31.905Z,18.77
2023-12-18T12:10:59.395Z,23.15
2023-12-18T12:13:27.219Z,20.45
2023-12-18T12:15:58.398Z,17.73
2023-12-18T12:18:28.385Z,14.02
2023-12-18T12:20:56.298Z,20.05
2023-12-18T12:23:23.885Z,20.67
2023-12-18T12:25:52.608Z,19.83
2023-12-18T12:28:21.765Z,16.42
2023-12-18T12:30:49.363Z,19.52
2023-12-18T12:33:17.679Z,20.48
2023-12-18T12:35:46.830Z,15.55
2023-12-18T12:38:16.366Z,16.60
2023-12-18T12:40:44.824Z,18.13
2023-12-18T12:43:12.974Z,19.42
2023-12-18T12:45:40.652Z,16.27
2023-12-18T12:48:09.012Z,15.85
2023-12-18T12:50:37.108Z,16.67
2023-12-18T12:53:06.023Z,19.63
2023-12-18T12:55:33.451Z,19.75
2023-12-18T12:58:00.887Z,14.57
2023-12-18T13:00:30.077Z,15.82
2023-12-18T13:02:57.796Z,19.55
2023-12-18T13:05:25.640Z,18.67
2023-12-18T13:07:53.241Z,15.77
2023-12-18T13:10:22.083Z,16.38
2023-12-18T13:12:49.679Z,15.35
2023-12-18T13:15:17.483Z,16.52
2023-12-18T13:17:46.608Z,17.50
2023-12-18T13:20:19.454Z,15.43
2023-12-18T13:22:55.714Z,15.35
2023-12-18T13:25:24.534Z,14.15
2023-12-18T13:27:52.136Z,12.38
2023-12-18T13:30:19.655Z,13.10
2023-12-18T13:32:47.237Z,13.32
2023-12-18T13:35:14.805Z,15.07
2023-12-18T13:37:42.508Z,20.08
2023-12-18T13:40:10.389Z,15.43
2023-12-18T13:42:39.128Z,14.13
2023-12-18T13:45:07.095Z,11.63
2023-12-18T13:47:34.535Z,17.13
2023-12-18T13:50:02.180Z,12.18
2023-12-18T13:52:29.745Z,12.75
2023-12-18T13:54:57.225Z,16.30
2023-12-18T13:57:25.182Z,17.55
2023-12-18T13:59:54.878Z,12.77
2023-12-18T14:02:22.280Z,12.93
2023-12-18T14:04:49.742Z,15.82
2023-12-18T14:07:17.178Z,13.30
2023-12-18T14:09:44.574Z,13.20
2023-12-18T14:12:12.093Z,13.68
2023-12-18T14:14:39.498Z,13.68
2023-12-18T14:17:08.332Z,11.30
2023-12-18T14:19:35.836Z,14.73
2023-12-18T14:22:03.377Z,11.32
2023-12-18T14:24:30.779Z,16.58
2023-12-18T14:26:58.189Z,15.60
2023-12-18T14:29:25.620Z,14.73
2023-12-18T14:31:53.132Z,15.48
2023-12-18T14:34:22.084Z,15.07
2023-12-18T14:36:49.639Z,11.93
2023-12-18T14:39:17.096Z,13.65
2023-12-18T14:41:45.266Z,11.65
2023-12-18T14:44:12.717Z,10.90
2023-12-18T14:46:40.113Z,12.15
2023-12-18T14:49:07.655Z,12.43
2023-12-18T14:51:36.572Z,11.60
2023-12-18T14:54:04.514Z,9.40
2023-12-18T14:56:37.253Z,9.98
2023-12-18T14:59:07.068Z,8.82
2023-12-18T15:01:34.593Z,13.05
2023-12-18T15:04:10.313Z,11.13
2023-12-18T15:06:44.713Z,11.77
2023-12-18T15:09:13.835Z,10.82
2023-12-18T15:11:42.203Z,11.18
2023-12-18T15:14:11.514Z,9.25
2023-12-18T15:16:38.935Z,13.07
2023-12-18T15:19:06.446Z,12.43
2023-12-18T15:21:34.026Z,15.07
2023-12-18T15:24:09.286Z,12.27
2023-12-18T15:26:38.598Z,11.65
2023-12-18T15:29:06.135Z,12.93
2023-12-18T15:31:33.698Z,14.15
2023-12-18T15:34:03.656Z,12.85
2023-12-18T15:36:33.494Z,13.05
2023-12-18T15:39:00.852Z,12.45
2023-12-18T15:41:30.477Z,12.80
2023-12-18T15:43:58.114Z,11.13
2023-12-18T15:46:25.612Z,13.02
2023-12-18T15:48:53.358Z,14.52
2023-12-18T15:51:21.010Z,11.25
2023-12-18T15:53:48.370Z,11.35
2023-12-18T15:56:15.996Z,11.32
2023-12-18T15:58:45.185Z,11.80
2023-12-18T16:01:13.090Z,10.40
2023-12-18T16:03:41.275Z,12.77
2023-12-18T16:06:08.771Z,13.32
2023-12-18T16:08:36.970Z,9.00
2023-12-18T16:11:04.508Z,10.93
2023-12-18T16:13:31.919Z,9.00
2023-12-18T16:16:00.724Z,9.45
2023-12-18T16:18:28.218Z,12.05
2023-12-18T16:20:55.673Z,8.43
2023-12-18T16:23:23.627Z,12.68
2023-12-18T16:25:51.017Z,9.98
2023-12-18T16:28:18.460Z,11.18
2023-12-18T16:30:56.669Z,10.27
2023-12-18T16:33:27.384Z,12.77
2023-12-18T16:35:55.380Z,13.27
2023-12-18T16:38:22.999Z,12.75
2023-12-18T16:40:51.694Z,12.07
2023-12-18T16:43:19.098Z,12.27
2023-12-18T16:45:46.578Z,14.27
2023-12-18T16:48:14.133Z,12.75
2023-12-18T16:50:43.089Z,12.20
2023-12-18T16:53:10.517Z,13.50
2023-12-18T16:55:38.541Z,14.82
2023-12-18T16:58:06.014Z,16.13
2023-12-18T17:00:34.263Z,20.75
2023-12-18T17:03:01.932Z,24.73
2023-12-18T17:05:29.595Z,15.20
2023-12-18T17:07:58.371Z,15.50
2023-12-18T17:10:25.997Z,17.10
2023-12-18T17:12:53.452Z,19.88
2023-12-18T17:15:21.764Z,25.13
2023-12-18T17:17:58.190Z,18.85
2023-12-18T17:20:26.381Z,19.65
2023-12-18T17:22:53.748Z,24.00
2023-12-18T17:25:22.423Z,22.73
2023-12-18T17:27:50.006Z,14.88
2023-12-18T17:30:17.637Z,17.55
2023-12-18T17:32:45.298Z,15.50
2023-12-18T17:35:13.001Z,17.35
2023-12-18T17:37:40.528Z,16.45
2023-12-18T17:40:08.660Z,17.95
2023-12-18T17:42:37.397Z,16.40
2023-12-18T17:45:05.096Z,18.55
2023-12-18T17:47:33.046Z,18.67
2023-12-18T17:50:00.979Z,20.00
2023-12-18T17:52:28.778Z,17.25
2023-12-18T17:54:56.242Z,20.77
2023-12-18T17:57:23.837Z,20.63
2023-12-18T17:59:54.462Z,17.95
2023-12-18T18:02:23.657Z,23.38
2023-12-18T18:04:51.333Z,17.30
2023-12-18T18:07:18.759Z,16.52
2023-12-18T18:09:46.220Z,20.55
2023-12-18T18:12:14.240Z,15.57
2023-12-18T18:14:41.729Z,15.98
2023-12-18T18:17:10.546Z,18.20
2023-12-18T18:19:38.178Z,20.23
2023-12-18T18:22:05.668Z,18.80
2023-12-18T18:24:34.434Z,18.35
2023-12-18T18:27:09.026Z,21.23
2023-12-18T18:29:38.563Z,18.73
2023-12-18T18:32:06.678Z,18.55
2023-12-18T18:34:38.150Z,19.42
2023-12-18T18:37:05.696Z,25.73
2023-12-18T18:39:33.319Z,21.55
2023-12-18T18:42:00.926Z,21.65
2023-12-18T18:44:28.448Z,24.58
2023-12-18T18:46:58.460Z,25.20
2023-12-18T18:49:25.942Z,22.02
2023-12-18T18:51:54.855Z,25.75
2023-12-18T18:54:22.438Z,19.10
2023-12-18T18:56:50.047Z,22.10
2023-12-18T18:59:17.482Z,21.83
2023-12-18T19:01:44.931Z,22.30
2023-12-18T19:04:14.480Z,18.63
2023-12-18T19:06:42.052Z,22.30
2023-12-18T19:09:10.995Z,22.45
2023-12-18T19:11:38.608Z,22.48
2023-12-18T19:14:06.129Z,21.27
2023-12-18T19:16:33.866Z,23.77
2023-12-18T19:19:01.477Z,24.08
2023-12-18T19:21:29.008Z,22.05
2023-12-18T19:23:56.622Z,30.08
2023-12-18T19:26:25.405Z,24.48
2023-12-18T19:28:53.180Z,21.20
2023-12-18T19:31:20.877Z,21.67
2023-12-18T19:33:48.577Z,25.65
2023-12-18T19:36:16.552Z,20.52
2023-12-18T19:38:44.328Z,25.05
2023-12-18T19:41:12.869Z,19.17
2023-12-18T19:43:41.637Z,17.55
2023-12-18T19:46:09.061Z,19.45
2023-12-18T19:48:36.799Z,18.23
2023-12-18T19:51:04.505Z,18.92
2023-12-18T19:53:32.159Z,25.33
2023-12-18T19:56:02.807Z,22.30
2023-12-18T19:58:30.338Z,23.55
2023-12-18T20:00:59.367Z,19.63
2023-12-18T20:03:26.945Z,21.52
2023-12-18T20:05:54.577Z,20.55
2023-12-18T20:08:22.082Z,16.95
2023-12-18T20:10:49.673Z,19.83
2023-12-18T20:13:17.193Z,16.23
2023-12-18T20:15:44.641Z,16.92
2023-12-18T20:18:18.538Z,20.58
2023-12-18T20:20:46.202Z,16.92
2023-12-18T20:23:13.730Z,17.35
2023-12-18T20:25:41.174Z,18.95
2023-12-18T20:28:08.668Z,19.17
2023-12-18T20:30:36.659Z,17.63
2023-12-18T20:33:04.869Z,19.88
2023-12-18T20:35:34.202Z,20.80
2023-12-18T20:38:01.692Z,19.70
2023-12-18T20:40:29.198Z,18.85
2023-12-18T20:42:56.716Z,19.40
2023-12-18T20:45:24.279Z,20.25
2023-12-18T20:47:51.826Z,19.70
2023-12-18T20:50:19.248Z,16.98
2023-12-18T20:52:48.432Z,20.00
2023-12-18T20:55:16.070Z,20.02
2023-12-18T20:57:43.825Z,20.90
2023-12-18T21:00:22.949Z,23.10
2023-12-18T21:02:52.828Z,20.85
2023-12-18T21:05:20.717Z,23.67
2023-12-18T21:07:49.561Z,19.63
2023-12-18T21:10:17.039Z,23.67
2023-12-18T21:12:44.821Z,21.02
2023-12-18T21:15:12.533Z,18.48
2023-12-18T21:17:40.016Z,26.98
2023-12-18T21:20:07.997Z,22.90
2023-12-18T21:22:35.658Z,22.48
2023-12-18T21:25:06.366Z,21.40
2023-12-18T21:27:34.173Z,30.98
2023-12-18T21:30:01.703Z,27.45
2023-12-18T21:32:29.564Z,24.05
2023-12-18T21:34:57.054Z,22.67
2023-12-18T21:37:33.618Z,24.60
2023-12-18T21:40:01.241Z,23.83
2023-12-18T21:42:30.166Z,27.70
2023-12-18T21:44:57.580Z,23.60
2023-12-18T21:47:29.413Z,25.55
2023-12-18T21:52:24.439Z,25.63
2023-12-18T21:54:51.957Z,22.10
2023-12-18T21:57:19.410Z,24.58
2023-12-18T21:59:48.172Z,22.83
2023-12-18T22:02:16.165Z,26.48
2023-12-18T22:04:43.631Z,23.75
2023-12-18T22:07:11.378Z,25.05
2023-12-18T22:09:40.462Z,24.17
2023-12-18T22:12:08.620Z,22.15
2023-12-18T22:14:36.096Z,22.48
2023-12-18T22:17:05.602Z,23.55
2023-12-18T22:19:33.321Z,23.02
2023-12-18T22:22:03.920Z,22.75
2023-12-18T22:24:31.445Z,19.35
2023-12-18T22:27:00.700Z,20.88
2023-12-18T22:29:28.159Z,22.52
2023-12-18T22:31:58.957Z,19.98
2023-12-18T22:34:28.015Z,18.63
2023-12-18T22:36:56.159Z,18.95
2023-12-18T22:39:23.760Z,18.48
2023-12-18T22:41:51.232Z,17.95
2023-12-18T22:44:20.775Z,16.95
2023-12-18T22:46:48.357Z,17.00
2023-12-18T22:49:15.820Z,15.82
2023-12-18T22:51:44.600Z,13.77
2023-12-18T22:54:12.033Z,14.18
2023-12-18T22:56:39.650Z,15.55
2023-12-18T22:59:07.063Z,14.60
2023-12-18T23:01:34.668Z,12.77
2023-12-18T23:04:02.305Z,13.85
2023-12-18T23:06:29.854Z,13.25
2023-12-18T23:08:58.584Z,14.80
2023-12-18T23:11:25.992Z,17.52
2023-12-18T23:13:53.411Z,12.32
2023-12-18T23:16:20.845Z,13.15
2023-12-18T23:18:48.976Z,12.95
2023-12-18T23:21:16.546Z,13.02
2023-12-18T23:23:44.129Z,14.38
2023-12-18T23:26:11.985Z,11.88
2023-12-18T23:28:39.864Z,14.38
2023-12-18T23:31:07.343Z,16.67
2023-12-18T23:33:35.086Z,11.20
2023-12-18T23:36:02.632Z,14.88
2023-12-18T23:38:30.073Z,12.07
2023-12-18T23:40:57.482Z,10.70
2023-12-18T23:43:26.827Z,11.98
2023-12-18T23:45:54.481Z,13.07
2023-12-18T23:48:22.006Z,11.25
2023-12-18T23:50:49.409Z,10.15
2023-12-18T23:53:16.846Z,10.30
2023-12-18T23:55:44.409Z,10.20
2023-12-18T23:58:12.242Z,10.75
